sensor_id;sensor_type;location;lat;lon;timestamp;P1;durP1;ratioP1;P2;durP2;ratioP2
52858;SDS011;38721;53.098;6.596;2022-07-22T00:01:15;10.00;;;4.22;;
52858;SDS011;38721;53.098;6.596;2022-07-22T00:03:41;10.02;;;4.65;;
52858;SDS011;38721;53.098;6.596;2022-07-22T00:06:07;9.63;;;4.30;;
52858;SDS011;38721;53.098;6.596;2022-07-22T00:08:32;10.38;;;4.03;;
52858;SDS011;38721;53.098;6.596;2022-07-22T00:11:01;14.77;;;4.53;;
52858;SDS011;38721;53.098;6.596;2022-07-22T00:13:27;11.98;;;5.38;;
52858;SDS011;38721;53.098;6.596;2022-07-22T00:15:52;9.93;;;4.82;;
52858;SDS011;38721;53.098;6.596;2022-07-22T00:18:18;14.18;;;5.13;;
52858;SDS011;38721;53.098;6.596;2022-07-22T00:20:44;14.20;;;5.28;;
52858;SDS011;38721;53.098;6.596;2022-07-22T00:23:09;16.48;;;5.53;;
52858;SDS011;38721;53.098;6.596;2022-07-22T00:25:35;16.42;;;5.72;;
52858;SDS011;38721;53.098;6.596;2022-07-22T00:28:03;17.88;;;5.75;;
52858;SDS011;38721;53.098;6.596;2022-07-22T00:30:29;12.18;;;6.07;;
52858;SDS011;38721;53.098;6.596;2022-07-22T00:32:55;10.15;;;5.22;;
52858;SDS011;38721;53.098;6.596;2022-07-22T00:35:21;16.60;;;6.18;;
52858;SDS011;38721;53.098;6.596;2022-07-22T00:37:46;14.65;;;6.00;;
52858;SDS011;38721;53.098;6.596;2022-07-22T00:40:12;13.68;;;6.10;;
52858;SDS011;38721;53.098;6.596;2022-07-22T00:42:39;13.15;;;5.72;;
52858;SDS011;38721;53.098;6.596;2022-07-22T00:45:05;17.90;;;4.70;;
52858;SDS011;38721;53.098;6.596;2022-07-22T00:47:31;13.02;;;5.45;;
52858;SDS011;38721;53.098;6.596;2022-07-22T00:49:57;11.98;;;4.45;;
52858;SDS011;38721;53.098;6.596;2022-07-22T00:52:23;10.98;;;4.70;;
52858;SDS011;38721;53.098;6.596;2022-07-22T00:54:50;12.63;;;4.82;;
52858;SDS011;38721;53.098;6.596;2022-07-22T00:57:16;12.55;;;4.70;;
52858;SDS011;38721;53.098;6.596;2022-07-22T00:59:42;14.32;;;3.95;;
52858;SDS011;38721;53.098;6.596;2022-07-22T01:02:08;11.45;;;4.07;;
52858;SDS011;38721;53.098;6.596;2022-07-22T01:04:46;13.50;;;4.25;;
52858;SDS011;38721;53.098;6.596;2022-07-22T01:07:12;15.55;;;4.43;;
52858;SDS011;38721;53.098;6.596;2022-07-22T01:09:42;13.98;;;4.85;;
52858;SDS011;38721;53.098;6.596;2022-07-22T01:12:09;9.38;;;3.60;;
52858;SDS011;38721;53.098;6.596;2022-07-22T01:14:34;9.43;;;4.00;;
52858;SDS011;38721;53.098;6.596;2022-07-22T01:17:00;11.45;;;4.03;;
52858;SDS011;38721;53.098;6.596;2022-07-22T01:19:26;12.60;;;4.15;;
52858;SDS011;38721;53.098;6.596;2022-07-22T01:21:51;8.73;;;3.70;;
52858;SDS011;38721;53.098;6.596;2022-07-22T01:24:17;8.35;;;3.50;;
52858;SDS011;38721;53.098;6.596;2022-07-22T01:26:43;10.60;;;3.83;;
52858;SDS011;38721;53.098;6.596;2022-07-22T01:29:09;12.18;;;3.42;;
52858;SDS011;38721;53.098;6.596;2022-07-22T01:31:35;10.68;;;3.50;;
52858;SDS011;38721;53.098;6.596;2022-07-22T01:34:00;9.60;;;3.97;;
52858;SDS011;38721;53.098;6.596;2022-07-22T01:36:26;8.00;;;3.40;;
52858;SDS011;38721;53.098;6.596;2022-07-22T01:38:52;8.85;;;3.65;;
52858;SDS011;38721;53.098;6.596;2022-07-22T01:41:18;11.10;;;3.40;;
52858;SDS011;38721;53.098;6.596;2022-07-22T01:43:43;15.73;;;3.42;;
52858;SDS011;38721;53.098;6.596;2022-07-22T01:46:09;14.30;;;3.45;;
52858;SDS011;38721;53.098;6.596;2022-07-22T01:48:35;9.85;;;3.30;;
52858;SDS011;38721;53.098;6.596;2022-07-22T01:51:01;7.10;;;2.95;;
52858;SDS011;38721;53.098;6.596;2022-07-22T01:53:27;9.13;;;3.42;;
52858;SDS011;38721;53.098;6.596;2022-07-22T01:55:53;9.00;;;2.90;;
52858;SDS011;38721;53.098;6.596;2022-07-22T01:58:19;12.27;;;2.60;;
52858;SDS011;38721;53.098;6.596;2022-07-22T02:00:45;7.85;;;2.75;;
52858;SDS011;38721;53.098;6.596;2022-07-22T02:03:10;9.55;;;3.10;;
52858;SDS011;38721;53.098;6.596;2022-07-22T02:05:36;9.65;;;2.83;;
52858;SDS011;38721;53.098;6.596;2022-07-22T02:08:06;7.78;;;2.80;;
52858;SDS011;38721;53.098;6.596;2022-07-22T02:10:34;10.52;;;3.10;;
52858;SDS011;38721;53.098;6.596;2022-07-22T02:13:00;5.65;;;3.08;;
52858;SDS011;38721;53.098;6.596;2022-07-22T02:15:26;8.05;;;2.70;;
52858;SDS011;38721;53.098;6.596;2022-07-22T02:17:52;6.15;;;2.65;;
52858;SDS011;38721;53.098;6.596;2022-07-22T02:20:19;9.48;;;2.85;;
52858;SDS011;38721;53.098;6.596;2022-07-22T02:22:45;10.52;;;3.40;;
52858;SDS011;38721;53.098;6.596;2022-07-22T02:25:11;8.25;;;2.90;;
52858;SDS011;38721;53.098;6.596;2022-07-22T02:27:37;11.20;;;3.20;;
52858;SDS011;38721;53.098;6.596;2022-07-22T02:30:03;8.88;;;2.45;;
52858;SDS011;38721;53.098;6.596;2022-07-22T02:32:30;10.10;;;3.05;;
52858;SDS011;38721;53.098;6.596;2022-07-22T02:34:56;7.13;;;2.97;;
52858;SDS011;38721;53.098;6.596;2022-07-22T02:37:21;7.72;;;2.63;;
52858;SDS011;38721;53.098;6.596;2022-07-22T02:39:47;10.60;;;2.83;;
52858;SDS011;38721;53.098;6.596;2022-07-22T02:42:13;11.40;;;3.15;;
52858;SDS011;38721;53.098;6.596;2022-07-22T02:44:38;8.07;;;2.90;;
52858;SDS011;38721;53.098;6.596;2022-07-22T02:47:04;6.22;;;2.50;;
52858;SDS011;38721;53.098;6.596;2022-07-22T02:49:30;9.82;;;2.92;;
52858;SDS011;38721;53.098;6.596;2022-07-22T02:51:55;9.10;;;2.60;;
52858;SDS011;38721;53.098;6.596;2022-07-22T02:54:21;10.20;;;2.85;;
52858;SDS011;38721;53.098;6.596;2022-07-22T02:56:47;4.63;;;2.28;;
52858;SDS011;38721;53.098;6.596;2022-07-22T02:59:12;5.90;;;2.45;;
52858;SDS011;38721;53.098;6.596;2022-07-22T03:01:38;6.93;;;2.72;;
52858;SDS011;38721;53.098;6.596;2022-07-22T03:04:04;12.10;;;2.63;;
52858;SDS011;38721;53.098;6.596;2022-07-22T03:06:29;7.00;;;2.30;;
52858;SDS011;38721;53.098;6.596;2022-07-22T03:08:55;8.10;;;2.40;;
52858;SDS011;38721;53.098;6.596;2022-07-22T03:11:21;5.30;;;2.42;;
52858;SDS011;38721;53.098;6.596;2022-07-22T03:13:47;8.68;;;2.03;;
52858;SDS011;38721;53.098;6.596;2022-07-22T03:16:12;9.60;;;2.45;;
52858;SDS011;38721;53.098;6.596;2022-07-22T03:18:38;9.40;;;2.75;;
52858;SDS011;38721;53.098;6.596;2022-07-22T03:21:04;5.53;;;2.00;;
52858;SDS011;38721;53.098;6.596;2022-07-22T03:23:29;8.15;;;2.38;;
52858;SDS011;38721;53.098;6.596;2022-07-22T03:25:55;6.10;;;2.28;;
52858;SDS011;38721;53.098;6.596;2022-07-22T03:28:22;6.47;;;1.83;;
52858;SDS011;38721;53.098;6.596;2022-07-22T03:30:48;9.40;;;2.20;;
52858;SDS011;38721;53.098;6.596;2022-07-22T03:33:13;6.03;;;2.17;;
52858;SDS011;38721;53.098;6.596;2022-07-22T03:35:39;5.65;;;2.00;;
52858;SDS011;38721;53.098;6.596;2022-07-22T03:38:05;5.88;;;2.00;;
52858;SDS011;38721;53.098;6.596;2022-07-22T03:40:31;7.25;;;2.00;;
52858;SDS011;38721;53.098;6.596;2022-07-22T03:42:58;7.38;;;2.20;;
52858;SDS011;38721;53.098;6.596;2022-07-22T03:45:23;8.70;;;2.50;;
52858;SDS011;38721;53.098;6.596;2022-07-22T03:47:49;6.35;;;2.13;;
52858;SDS011;38721;53.098;6.596;2022-07-22T03:50:15;6.50;;;1.90;;
52858;SDS011;38721;53.098;6.596;2022-07-22T03:52:40;6.93;;;2.17;;
52858;SDS011;38721;53.098;6.596;2022-07-22T03:55:06;8.63;;;2.78;;
52858;SDS011;38721;53.098;6.596;2022-07-22T03:57:32;3.42;;;2.25;;
52858;SDS011;38721;53.098;6.596;2022-07-22T03:59:58;8.55;;;2.85;;
52858;SDS011;38721;53.098;6.596;2022-07-22T04:02:24;8.07;;;2.30;;
52858;SDS011;38721;53.098;6.596;2022-07-22T04:04:52;5.55;;;2.10;;
52858;SDS011;38721;53.098;6.596;2022-07-22T04:07:18;4.32;;;2.03;;
52858;SDS011;38721;53.098;6.596;2022-07-22T04:09:43;7.55;;;2.50;;
52858;SDS011;38721;53.098;6.596;2022-07-22T04:12:09;5.78;;;2.13;;
52858;SDS011;38721;53.098;6.596;2022-07-22T04:14:35;4.20;;;2.03;;
52858;SDS011;38721;53.098;6.596;2022-07-22T04:17:00;8.70;;;2.40;;
52858;SDS011;38721;53.098;6.596;2022-07-22T04:19:26;7.38;;;2.75;;
52858;SDS011;38721;53.098;6.596;2022-07-22T04:21:51;6.65;;;2.55;;
52858;SDS011;38721;53.098;6.596;2022-07-22T04:24:21;6.05;;;2.30;;
52858;SDS011;38721;53.098;6.596;2022-07-22T04:26:46;8.93;;;2.38;;
52858;SDS011;38721;53.098;6.596;2022-07-22T04:29:12;5.72;;;2.50;;
52858;SDS011;38721;53.098;6.596;2022-07-22T04:31:38;6.20;;;2.20;;
52858;SDS011;38721;53.098;6.596;2022-07-22T04:34:03;6.07;;;2.30;;
52858;SDS011;38721;53.098;6.596;2022-07-22T04:36:29;4.07;;;2.00;;
52858;SDS011;38721;53.098;6.596;2022-07-22T04:38:55;8.85;;;2.35;;
52858;SDS011;38721;53.098;6.596;2022-07-22T04:41:21;5.07;;;2.40;;
52858;SDS011;38721;53.098;6.596;2022-07-22T04:43:49;8.85;;;2.40;;
52858;SDS011;38721;53.098;6.596;2022-07-22T04:46:15;10.88;;;2.45;;
52858;SDS011;38721;53.098;6.596;2022-07-22T04:48:43;8.43;;;2.67;;
52858;SDS011;38721;53.098;6.596;2022-07-22T04:51:09;4.60;;;2.38;;
52858;SDS011;38721;53.098;6.596;2022-07-22T04:53:35;7.75;;;2.60;;
52858;SDS011;38721;53.098;6.596;2022-07-22T04:56:01;4.15;;;1.98;;
52858;SDS011;38721;53.098;6.596;2022-07-22T04:58:27;7.93;;;2.42;;
52858;SDS011;38721;53.098;6.596;2022-07-22T05:00:53;5.40;;;2.20;;
52858;SDS011;38721;53.098;6.596;2022-07-22T05:03:22;7.93;;;2.22;;
52858;SDS011;38721;53.098;6.596;2022-07-22T05:05:49;9.77;;;2.65;;
52858;SDS011;38721;53.098;6.596;2022-07-22T05:08:15;4.43;;;2.38;;
52858;SDS011;38721;53.098;6.596;2022-07-22T05:10:41;8.40;;;1.92;;
52858;SDS011;38721;53.098;6.596;2022-07-22T05:13:07;7.13;;;2.55;;
52858;SDS011;38721;53.098;6.596;2022-07-22T05:15:32;3.22;;;1.92;;
52858;SDS011;38721;53.098;6.596;2022-07-22T05:17:58;7.38;;;2.15;;
52858;SDS011;38721;53.098;6.596;2022-07-22T05:20:24;6.03;;;2.30;;
52858;SDS011;38721;53.098;6.596;2022-07-22T05:22:49;10.13;;;2.10;;
52858;SDS011;38721;53.098;6.596;2022-07-22T05:25:15;8.18;;;2.22;;
52858;SDS011;38721;53.098;6.596;2022-07-22T05:27:50;8.15;;;2.38;;
52858;SDS011;38721;53.098;6.596;2022-07-22T05:30:18;4.20;;;1.90;;
52858;SDS011;38721;53.098;6.596;2022-07-22T05:32:43;6.97;;;2.40;;
52858;SDS011;38721;53.098;6.596;2022-07-22T05:35:09;7.00;;;2.20;;
52858;SDS011;38721;53.098;6.596;2022-07-22T05:37:35;6.95;;;2.13;;
52858;SDS011;38721;53.098;6.596;2022-07-22T05:40:00;4.90;;;2.00;;
52858;SDS011;38721;53.098;6.596;2022-07-22T05:42:29;8.13;;;2.28;;
52858;SDS011;38721;53.098;6.596;2022-07-22T05:44:55;5.72;;;2.00;;
52858;SDS011;38721;53.098;6.596;2022-07-22T05:47:21;6.97;;;2.05;;
52858;SDS011;38721;53.098;6.596;2022-07-22T05:49:49;5.18;;;2.28;;
52858;SDS011;38721;53.098;6.596;2022-07-22T05:52:15;6.00;;;1.90;;
52858;SDS011;38721;53.098;6.596;2022-07-22T05:54:40;6.32;;;2.30;;
52858;SDS011;38721;53.098;6.596;2022-07-22T05:57:06;7.85;;;2.03;;
52858;SDS011;38721;53.098;6.596;2022-07-22T05:59:35;5.45;;;1.73;;
52858;SDS011;38721;53.098;6.596;2022-07-22T06:02:01;5.35;;;1.80;;
52858;SDS011;38721;53.098;6.596;2022-07-22T06:04:27;7.25;;;2.03;;
52858;SDS011;38721;53.098;6.596;2022-07-22T06:06:53;5.57;;;2.08;;
52858;SDS011;38721;53.098;6.596;2022-07-22T06:09:19;5.30;;;2.00;;
52858;SDS011;38721;53.098;6.596;2022-07-22T06:11:44;5.00;;;2.15;;
52858;SDS011;38721;53.098;6.596;2022-07-22T06:14:13;4.47;;;1.90;;
52858;SDS011;38721;53.098;6.596;2022-07-22T06:16:39;4.97;;;2.15;;
52858;SDS011;38721;53.098;6.596;2022-07-22T06:19:05;4.22;;;2.30;;
52858;SDS011;38721;53.098;6.596;2022-07-22T06:21:30;7.13;;;2.35;;
52858;SDS011;38721;53.098;6.596;2022-07-22T06:23:57;8.80;;;2.45;;
52858;SDS011;38721;53.098;6.596;2022-07-22T06:26:22;4.80;;;2.10;;
52858;SDS011;38721;53.098;6.596;2022-07-22T06:28:48;6.68;;;2.38;;
52858;SDS011;38721;53.098;6.596;2022-07-22T06:31:14;6.30;;;2.25;;
52858;SDS011;38721;53.098;6.596;2022-07-22T06:33:41;7.38;;;2.35;;
52858;SDS011;38721;53.098;6.596;2022-07-22T06:36:07;5.03;;;2.35;;
52858;SDS011;38721;53.098;6.596;2022-07-22T06:38:33;6.13;;;2.05;;
52858;SDS011;38721;53.098;6.596;2022-07-22T06:41:02;7.03;;;2.40;;
52858;SDS011;38721;53.098;6.596;2022-07-22T06:43:28;10.38;;;2.55;;
52858;SDS011;38721;53.098;6.596;2022-07-22T06:45:54;7.75;;;2.40;;
52858;SDS011;38721;53.098;6.596;2022-07-22T06:48:19;5.75;;;1.88;;
52858;SDS011;38721;53.098;6.596;2022-07-22T06:50:45;6.03;;;2.13;;
52858;SDS011;38721;53.098;6.596;2022-07-22T06:53:11;6.38;;;2.20;;
52858;SDS011;38721;53.098;6.596;2022-07-22T06:55:37;8.35;;;2.78;;
52858;SDS011;38721;53.098;6.596;2022-07-22T06:58:02;4.90;;;2.13;;
52858;SDS011;38721;53.098;6.596;2022-07-22T07:00:28;7.75;;;2.35;;
52858;SDS011;38721;53.098;6.596;2022-07-22T07:02:57;4.25;;;2.53;;
52858;SDS011;38721;53.098;6.596;2022-07-22T07:05:26;6.20;;;2.20;;
52858;SDS011;38721;53.098;6.596;2022-07-22T07:07:55;7.28;;;2.22;;
52858;SDS011;38721;53.098;6.596;2022-07-22T07:10:21;5.45;;;1.90;;
52858;SDS011;38721;53.098;6.596;2022-07-22T07:12:47;9.25;;;2.20;;
52858;SDS011;38721;53.098;6.596;2022-07-22T07:15:13;3.92;;;1.85;;
52858;SDS011;38721;53.098;6.596;2022-07-22T07:17:39;6.07;;;1.98;;
52858;SDS011;38721;53.098;6.596;2022-07-22T07:20:05;7.70;;;2.00;;
52858;SDS011;38721;53.098;6.596;2022-07-22T07:22:31;5.13;;;1.60;;
52858;SDS011;38721;53.098;6.596;2022-07-22T07:25:01;5.50;;;1.80;;
52858;SDS011;38721;53.098;6.596;2022-07-22T07:27:33;7.68;;;2.20;;
52858;SDS011;38721;53.098;6.596;2022-07-22T07:29:59;7.10;;;2.00;;
52858;SDS011;38721;53.098;6.596;2022-07-22T07:32:25;5.18;;;2.03;;
52858;SDS011;38721;53.098;6.596;2022-07-22T07:34:51;6.97;;;1.77;;
52858;SDS011;38721;53.098;6.596;2022-07-22T07:37:19;4.80;;;1.65;;
52858;SDS011;38721;53.098;6.596;2022-07-22T07:39:45;8.73;;;1.80;;
52858;SDS011;38721;53.098;6.596;2022-07-22T07:42:11;4.15;;;1.55;;
52858;SDS011;38721;53.098;6.596;2022-07-22T07:44:38;5.72;;;1.83;;
52858;SDS011;38721;53.098;6.596;2022-07-22T07:47:04;6.78;;;1.50;;
52858;SDS011;38721;53.098;6.596;2022-07-22T07:49:30;7.18;;;1.55;;
52858;SDS011;38721;53.098;6.596;2022-07-22T07:51:55;5.13;;;1.85;;
52858;SDS011;38721;53.098;6.596;2022-07-22T07:54:21;5.10;;;1.92;;
52858;SDS011;38721;53.098;6.596;2022-07-22T07:56:47;5.85;;;2.00;;
52858;SDS011;38721;53.098;6.596;2022-07-22T07:59:13;6.38;;;1.48;;
52858;SDS011;38721;53.098;6.596;2022-07-22T08:01:42;4.93;;;1.90;;
52858;SDS011;38721;53.098;6.596;2022-07-22T08:04:08;13.40;;;2.35;;
52858;SDS011;38721;53.098;6.596;2022-07-22T08:06:33;5.70;;;1.70;;
52858;SDS011;38721;53.098;6.596;2022-07-22T08:08:59;5.10;;;1.80;;
52858;SDS011;38721;53.098;6.596;2022-07-22T08:11:25;5.00;;;1.65;;
52858;SDS011;38721;53.098;6.596;2022-07-22T08:13:50;5.35;;;1.58;;
52858;SDS011;38721;53.098;6.596;2022-07-22T08:16:19;3.45;;;1.67;;
52858;SDS011;38721;53.098;6.596;2022-07-22T08:18:45;6.30;;;2.33;;
52858;SDS011;38721;53.098;6.596;2022-07-22T08:21:14;5.80;;;1.50;;
52858;SDS011;38721;53.098;6.596;2022-07-22T08:23:40;4.03;;;1.50;;
52858;SDS011;38721;53.098;6.596;2022-07-22T08:26:05;4.05;;;1.70;;
52858;SDS011;38721;53.098;6.596;2022-07-22T08:28:31;5.55;;;1.60;;
52858;SDS011;38721;53.098;6.596;2022-07-22T08:31:00;9.52;;;1.90;;
52858;SDS011;38721;53.098;6.596;2022-07-22T08:33:25;6.20;;;2.00;;
52858;SDS011;38721;53.098;6.596;2022-07-22T08:35:51;7.70;;;2.00;;
52858;SDS011;38721;53.098;6.596;2022-07-22T08:38:17;5.57;;;1.65;;
52858;SDS011;38721;53.098;6.596;2022-07-22T08:40:42;3.55;;;1.60;;
52858;SDS011;38721;53.098;6.596;2022-07-22T08:43:08;5.47;;;1.95;;
52858;SDS011;38721;53.098;6.596;2022-07-22T08:45:34;6.55;;;1.73;;
52858;SDS011;38721;53.098;6.596;2022-07-22T08:48:00;7.35;;;1.50;;
52858;SDS011;38721;53.098;6.596;2022-07-22T08:50:28;6.30;;;1.50;;
52858;SDS011;38721;53.098;6.596;2022-07-22T08:52:57;2.85;;;1.27;;
52858;SDS011;38721;53.098;6.596;2022-07-22T08:55:23;5.65;;;1.35;;
52858;SDS011;38721;53.098;6.596;2022-07-22T08:57:50;4.68;;;1.52;;
52858;SDS011;38721;53.098;6.596;2022-07-22T09:00:17;2.45;;;1.25;;
52858;SDS011;38721;53.098;6.596;2022-07-22T09:02:45;3.53;;;1.38;;
52858;SDS011;38721;53.098;6.596;2022-07-22T09:05:11;5.03;;;1.33;;
52858;SDS011;38721;53.098;6.596;2022-07-22T09:07:44;5.03;;;1.77;;
52858;SDS011;38721;53.098;6.596;2022-07-22T09:10:15;3.50;;;1.27;;
52858;SDS011;38721;53.098;6.596;2022-07-22T09:12:54;5.15;;;1.60;;
52858;SDS011;38721;53.098;6.596;2022-07-22T09:15:24;2.97;;;1.27;;
52858;SDS011;38721;53.098;6.596;2022-07-22T09:17:55;5.28;;;1.60;;
52858;SDS011;38721;53.098;6.596;2022-07-22T09:20:23;5.45;;;1.60;;
52858;SDS011;38721;53.098;6.596;2022-07-22T09:22:49;5.53;;;1.52;;
52858;SDS011;38721;53.098;6.596;2022-07-22T09:30:30;9.75;;;1.88;;
52858;SDS011;38721;53.098;6.596;2022-07-22T09:32:59;8.30;;;1.90;;
52858;SDS011;38721;53.098;6.596;2022-07-22T09:35:24;7.88;;;1.92;;
52858;SDS011;38721;53.098;6.596;2022-07-22T09:37:55;7.22;;;1.58;;
52858;SDS011;38721;53.098;6.596;2022-07-22T09:40:23;5.97;;;1.60;;
52858;SDS011;38721;53.098;6.596;2022-07-22T09:42:52;6.50;;;1.58;;
52858;SDS011;38721;53.098;6.596;2022-07-22T09:45:18;5.72;;;1.52;;
52858;SDS011;38721;53.098;6.596;2022-07-22T09:47:46;3.80;;;1.58;;
52858;SDS011;38721;53.098;6.596;2022-07-22T09:50:16;3.17;;;1.40;;
52858;SDS011;38721;53.098;6.596;2022-07-22T09:52:55;4.35;;;1.50;;
52858;SDS011;38721;53.098;6.596;2022-07-22T09:55:23;4.32;;;1.35;;
52858;SDS011;38721;53.098;6.596;2022-07-22T09:57:50;5.43;;;1.65;;
52858;SDS011;38721;53.098;6.596;2022-07-22T10:00:18;4.10;;;1.17;;
52858;SDS011;38721;53.098;6.596;2022-07-22T10:05:11;3.55;;;1.02;;
52858;SDS011;38721;53.098;6.596;2022-07-22T10:07:39;3.38;;;1.15;;
52858;SDS011;38721;53.098;6.596;2022-07-22T10:10:07;4.32;;;1.30;;
52858;SDS011;38721;53.098;6.596;2022-07-22T10:12:34;2.58;;;0.90;;
52858;SDS011;38721;53.098;6.596;2022-07-22T10:15:02;3.80;;;1.10;;
52858;SDS011;38721;53.098;6.596;2022-07-22T10:17:28;2.10;;;1.00;;
52858;SDS011;38721;53.098;6.596;2022-07-22T10:19:55;2.10;;;0.93;;
52858;SDS011;38721;53.098;6.596;2022-07-22T10:25:11;2.72;;;0.90;;
52858;SDS011;38721;53.098;6.596;2022-07-22T10:30:22;2.30;;;1.08;;
52858;SDS011;38721;53.098;6.596;2022-07-22T10:33:08;4.47;;;1.00;;
52858;SDS011;38721;53.098;6.596;2022-07-22T10:35:35;2.55;;;1.00;;
52858;SDS011;38721;53.098;6.596;2022-07-22T10:38:03;6.05;;;1.23;;
52858;SDS011;38721;53.098;6.596;2022-07-22T10:40:33;5.05;;;0.95;;
52858;SDS011;38721;53.098;6.596;2022-07-22T10:43:13;2.25;;;1.10;;
52858;SDS011;38721;53.098;6.596;2022-07-22T10:45:50;3.33;;;0.90;;
52858;SDS011;38721;53.098;6.596;2022-07-22T10:51:06;2.38;;;0.90;;
52858;SDS011;38721;53.098;6.596;2022-07-22T10:58:58;7.13;;;1.92;;
52858;SDS011;38721;53.098;6.596;2022-07-22T11:01:28;2.47;;;0.88;;
52858;SDS011;38721;53.098;6.596;2022-07-22T11:03:56;1.75;;;0.73;;
52858;SDS011;38721;53.098;6.596;2022-07-22T11:06:32;2.83;;;0.90;;
52858;SDS011;38721;53.098;6.596;2022-07-22T11:09:03;4.65;;;1.30;;
52858;SDS011;38721;53.098;6.596;2022-07-22T11:14:14;2.40;;;0.90;;
52858;SDS011;38721;53.098;6.596;2022-07-22T11:17:05;3.42;;;1.05;;
52858;SDS011;38721;53.098;6.596;2022-07-22T11:19:32;2.15;;;1.08;;
52858;SDS011;38721;53.098;6.596;2022-07-22T11:22:02;3.75;;;1.30;;
52858;SDS011;38721;53.098;6.596;2022-07-22T11:24:30;3.22;;;1.10;;
52858;SDS011;38721;53.098;6.596;2022-07-22T11:26:57;5.80;;;1.45;;
52858;SDS011;38721;53.098;6.596;2022-07-22T11:29:27;5.57;;;1.20;;
52858;SDS011;38721;53.098;6.596;2022-07-22T11:31:55;4.10;;;1.17;;
52858;SDS011;38721;53.098;6.596;2022-07-22T11:34:23;4.45;;;1.05;;
52858;SDS011;38721;53.098;6.596;2022-07-22T11:36:53;2.85;;;1.30;;
52858;SDS011;38721;53.098;6.596;2022-07-22T11:39:20;5.25;;;1.48;;
52858;SDS011;38721;53.098;6.596;2022-07-22T11:41:47;2.90;;;1.10;;
52858;SDS011;38721;53.098;6.596;2022-07-22T11:44:17;4.75;;;1.25;;
52858;SDS011;38721;53.098;6.596;2022-07-22T11:46:44;2.67;;;0.93;;
52858;SDS011;38721;53.098;6.596;2022-07-22T11:49:12;2.85;;;1.08;;
52858;SDS011;38721;53.098;6.596;2022-07-22T11:51:39;4.80;;;1.20;;
52858;SDS011;38721;53.098;6.596;2022-07-22T11:54:05;2.60;;;1.00;;
52858;SDS011;38721;53.098;6.596;2022-07-22T11:56:31;3.15;;;1.13;;
52858;SDS011;38721;53.098;6.596;2022-07-22T11:58:58;3.40;;;1.27;;
52858;SDS011;38721;53.098;6.596;2022-07-22T12:01:28;3.58;;;1.67;;
52858;SDS011;38721;53.098;6.596;2022-07-22T12:03:55;3.03;;;1.05;;
52858;SDS011;38721;53.098;6.596;2022-07-22T12:06:23;3.65;;;1.10;;
52858;SDS011;38721;53.098;6.596;2022-07-22T12:08:52;3.03;;;1.10;;
52858;SDS011;38721;53.098;6.596;2022-07-22T12:11:22;1.25;;;1.05;;
52858;SDS011;38721;53.098;6.596;2022-07-22T12:13:50;2.10;;;1.15;;
52858;SDS011;38721;53.098;6.596;2022-07-22T12:18:51;5.50;;;1.13;;
52858;SDS011;38721;53.098;6.596;2022-07-22T12:21:18;3.15;;;1.05;;
52858;SDS011;38721;53.098;6.596;2022-07-22T12:23:49;1.98;;;1.05;;
52858;SDS011;38721;53.098;6.596;2022-07-22T12:26:17;3.25;;;0.93;;
52858;SDS011;38721;53.098;6.596;2022-07-22T12:28:43;6.00;;;1.27;;
52858;SDS011;38721;53.098;6.596;2022-07-22T12:31:08;2.80;;;0.98;;
52858;SDS011;38721;53.098;6.596;2022-07-22T12:33:34;1.67;;;1.10;;
52858;SDS011;38721;53.098;6.596;2022-07-22T12:36:04;2.00;;;0.80;;
52858;SDS011;38721;53.098;6.596;2022-07-22T12:38:31;1.85;;;1.08;;
52858;SDS011;38721;53.098;6.596;2022-07-22T12:41:20;2.33;;;1.08;;
52858;SDS011;38721;53.098;6.596;2022-07-22T12:43:50;1.92;;;0.90;;
52858;SDS011;38721;53.098;6.596;2022-07-22T12:46:16;1.95;;;0.93;;
52858;SDS011;38721;53.098;6.596;2022-07-22T12:48:49;2.42;;;0.95;;
52858;SDS011;38721;53.098;6.596;2022-07-22T12:51:19;4.25;;;0.80;;
52858;SDS011;38721;53.098;6.596;2022-07-22T12:53:45;2.72;;;0.82;;
52858;SDS011;38721;53.098;6.596;2022-07-22T12:56:11;1.33;;;0.90;;
52858;SDS011;38721;53.098;6.596;2022-07-22T12:58:37;3.05;;;1.10;;
52858;SDS011;38721;53.098;6.596;2022-07-22T13:01:05;4.47;;;1.10;;
52858;SDS011;38721;53.098;6.596;2022-07-22T13:03:32;2.50;;;1.05;;
52858;SDS011;38721;53.098;6.596;2022-07-22T13:06:00;1.73;;;0.70;;
52858;SDS011;38721;53.098;6.596;2022-07-22T13:08:28;2.40;;;1.00;;
52858;SDS011;38721;53.098;6.596;2022-07-22T13:10:54;4.78;;;0.90;;
52858;SDS011;38721;53.098;6.596;2022-07-22T13:13:24;4.00;;;0.73;;
52858;SDS011;38721;53.098;6.596;2022-07-22T13:15:50;4.55;;;0.75;;
52858;SDS011;38721;53.098;6.596;2022-07-22T13:18:16;2.10;;;0.80;;
52858;SDS011;38721;53.098;6.596;2022-07-22T13:20:42;1.75;;;0.63;;
52858;SDS011;38721;53.098;6.596;2022-07-22T13:23:08;9.00;;;1.23;;
52858;SDS011;38721;53.098;6.596;2022-07-22T13:25:34;4.50;;;0.80;;
52858;SDS011;38721;53.098;6.596;2022-07-22T13:28:00;2.10;;;0.80;;
52858;SDS011;38721;53.098;6.596;2022-07-22T13:30:26;1.00;;;0.68;;
52858;SDS011;38721;53.098;6.596;2022-07-22T13:32:52;1.40;;;0.68;;
52858;SDS011;38721;53.098;6.596;2022-07-22T13:35:18;1.02;;;0.60;;
52858;SDS011;38721;53.098;6.596;2022-07-22T13:37:44;2.17;;;0.90;;
52858;SDS011;38721;53.098;6.596;2022-07-22T13:40:10;1.58;;;0.68;;
52858;SDS011;38721;53.098;6.596;2022-07-22T13:42:36;1.95;;;0.70;;
52858;SDS011;38721;53.098;6.596;2022-07-22T13:45:03;1.65;;;0.70;;
52858;SDS011;38721;53.098;6.596;2022-07-22T13:47:29;1.60;;;0.73;;
52858;SDS011;38721;53.098;6.596;2022-07-22T13:49:58;1.95;;;1.02;;
52858;SDS011;38721;53.098;6.596;2022-07-22T13:52:24;1.20;;;0.70;;
52858;SDS011;38721;53.098;6.596;2022-07-22T13:54:50;1.90;;;0.80;;
52858;SDS011;38721;53.098;6.596;2022-07-22T13:57:16;0.85;;;0.60;;
52858;SDS011;38721;53.098;6.596;2022-07-22T13:59:42;3.10;;;1.20;;
52858;SDS011;38721;53.098;6.596;2022-07-22T14:02:08;1.50;;;0.60;;
52858;SDS011;38721;53.098;6.596;2022-07-22T14:04:34;4.20;;;0.95;;
52858;SDS011;38721;53.098;6.596;2022-07-22T14:07:00;0.90;;;0.55;;
52858;SDS011;38721;53.098;6.596;2022-07-22T14:09:25;2.25;;;0.80;;
52858;SDS011;38721;53.098;6.596;2022-07-22T14:11:51;3.70;;;0.70;;
52858;SDS011;38721;53.098;6.596;2022-07-22T14:14:17;2.25;;;0.70;;
52858;SDS011;38721;53.098;6.596;2022-07-22T14:16:43;1.85;;;0.70;;
52858;SDS011;38721;53.098;6.596;2022-07-22T14:19:09;1.88;;;0.80;;
52858;SDS011;38721;53.098;6.596;2022-07-22T14:21:37;1.02;;;0.82;;
52858;SDS011;38721;53.098;6.596;2022-07-22T14:24:05;2.30;;;1.02;;
52858;SDS011;38721;53.098;6.596;2022-07-22T14:26:31;0.80;;;0.80;;
52858;SDS011;38721;53.098;6.596;2022-07-22T14:28:58;3.58;;;1.17;;
52858;SDS011;38721;53.098;6.596;2022-07-22T14:31:23;4.40;;;1.15;;
52858;SDS011;38721;53.098;6.596;2022-07-22T14:33:49;3.83;;;1.00;;
52858;SDS011;38721;53.098;6.596;2022-07-22T14:36:15;2.25;;;1.10;;
52858;SDS011;38721;53.098;6.596;2022-07-22T14:38:41;3.42;;;1.00;;
52858;SDS011;38721;53.098;6.596;2022-07-22T14:41:07;3.30;;;1.10;;
52858;SDS011;38721;53.098;6.596;2022-07-22T14:43:33;3.47;;;1.15;;
52858;SDS011;38721;53.098;6.596;2022-07-22T14:46:00;3.20;;;1.13;;
52858;SDS011;38721;53.098;6.596;2022-07-22T14:48:26;3.53;;;1.20;;
52858;SDS011;38721;53.098;6.596;2022-07-22T14:50:53;4.25;;;1.10;;
52858;SDS011;38721;53.098;6.596;2022-07-22T14:53:18;2.80;;;1.23;;
52858;SDS011;38721;53.098;6.596;2022-07-22T14:55:53;3.08;;;1.10;;
52858;SDS011;38721;53.098;6.596;2022-07-22T14:58:18;3.83;;;1.23;;
52858;SDS011;38721;53.098;6.596;2022-07-22T15:00:44;3.40;;;1.33;;
52858;SDS011;38721;53.098;6.596;2022-07-22T15:03:10;1.55;;;1.15;;
52858;SDS011;38721;53.098;6.596;2022-07-22T15:05:35;3.10;;;1.13;;
52858;SDS011;38721;53.098;6.596;2022-07-22T15:08:04;3.15;;;1.20;;
52858;SDS011;38721;53.098;6.596;2022-07-22T15:10:30;3.75;;;1.50;;